createdAt,value
2022-08-29T00:01:10.216Z,16.30
2022-08-29T00:03:38.501Z,16.20
2022-08-29T00:06:09.484Z,16.20
2022-08-29T00:08:37.619Z,16.10
2022-08-29T00:11:08.156Z,16.10
2022-08-29T00:13:35.848Z,16.10
2022-08-29T00:16:04.177Z,16.10
2022-08-29T00:18:31.245Z,16.10
2022-08-29T00:20:58.433Z,16.00
2022-08-29T00:23:33.092Z,16.00
2022-08-29T00:26:00.089Z,16.00
2022-08-29T00:28:28.895Z,15.90
2022-08-29T00:30:57.912Z,16.00
2022-08-29T00:33:25.638Z,15.90
2022-08-29T00:35:54.623Z,15.90
2022-08-29T00:38:27.753Z,15.90
2022-08-29T00:40:58.532Z,15.90
2022-08-29T00:43:29.542Z,15.90
2022-08-29T00:46:17.240Z,15.80
2022-08-29T00:48:53.515Z,15.80
2022-08-29T00:51:23.738Z,15.80
2022-08-29T00:56:41.656Z,15.80
2022-08-29T00:59:16.858Z,15.80
2022-08-29T01:01:44.384Z,15.80
2022-08-29T01:04:15.724Z,15.70
2022-08-29T01:06:50.019Z,15.60
2022-08-29T01:09:17.568Z,15.60
2022-08-29T01:12:03.734Z,15.80
2022-08-29T01:14:38.547Z,15.60
2022-08-29T01:17:08.630Z,15.60
2022-08-29T01:19:45.078Z,15.50
2022-08-29T01:22:20.261Z,15.50
2022-08-29T01:24:51.930Z,15.50
2022-08-29T01:27:25.292Z,15.50
2022-08-29T01:29:52.502Z,15.50
2022-08-29T01:32:19.982Z,15.90
2022-08-29T01:34:48.755Z,15.50
2022-08-29T01:37:17.136Z,15.40
2022-08-29T01:39:46.535Z,15.40
2022-08-29T01:42:28.477Z,15.40
2022-08-29T01:45:02.759Z,15.40
2022-08-29T01:47:35.016Z,15.30
2022-08-29T01:50:05.201Z,15.30
2022-08-29T01:52:33.639Z,15.30
2022-08-29T01:55:04.264Z,15.30
2022-08-29T01:57:31.455Z,15.30
2022-08-29T02:00:06.115Z,15.30
2022-08-29T02:02:34.391Z,15.30
2022-08-29T02:05:05.688Z,15.30
2022-08-29T02:07:34.632Z,15.30
2022-08-29T02:10:01.601Z,15.30
2022-08-29T02:12:29.930Z,15.30
2022-08-29T02:14:56.948Z,15.30
2022-08-29T02:17:24.289Z,15.30
2022-08-29T02:19:55.023Z,15.30
2022-08-29T02:22:21.872Z,15.20
2022-08-29T02:24:48.859Z,15.20
2022-08-29T02:27:16.035Z,15.20
2022-08-29T02:29:44.456Z,15.20
2022-08-29T02:32:15.890Z,15.10
2022-08-29T02:34:48.527Z,15.10
2022-08-29T02:37:16.546Z,15.00
2022-08-29T02:39:43.792Z,15.10
2022-08-29T02:42:12.219Z,15.10
2022-08-29T02:44:39.362Z,15.00
2022-08-29T02:47:10.139Z,15.00
2022-08-29T02:49:41.183Z,15.00
2022-08-29T02:52:10.201Z,15.00
2022-08-29T02:54:46.115Z,15.00
2022-08-29T02:57:13.538Z,14.90
2022-08-29T02:59:40.464Z,14.90
2022-08-29T03:02:09.362Z,14.90
2022-08-29T03:04:37.256Z,14.90
2022-08-29T03:07:05.396Z,14.90
2022-08-29T03:09:32.276Z,14.80
2022-08-29T03:11:59.469Z,14.90
2022-08-29T03:14:26.561Z,14.90
2022-08-29T03:16:53.641Z,14.90
2022-08-29T03:19:20.659Z,14.80
2022-08-29T03:21:49.500Z,14.90
2022-08-29T03:24:16.648Z,14.90
2022-08-29T03:26:56.467Z,14.80
2022-08-29T03:29:25.091Z,14.80
2022-08-29T03:31:52.129Z,14.80
2022-08-29T03:34:20.475Z,14.70
2022-08-29T03:36:49.766Z,14.80
2022-08-29T03:39:17.600Z,14.70
2022-08-29T03:41:44.449Z,14.70
2022-08-29T03:44:14.589Z,14.70
2022-08-29T03:46:41.646Z,14.70
2022-08-29T03:49:09.057Z,14.70
2022-08-29T03:51:37.552Z,14.70
2022-08-29T03:54:05.797Z,14.60
2022-08-29T03:56:33.385Z,14.60
2022-08-29T03:59:00.621Z,14.70
2022-08-29T04:01:29.538Z,14.70
2022-08-29T04:03:58.806Z,14.60
2022-08-29T04:06:28.684Z,14.60
2022-08-29T04:08:58.443Z,14.70
2022-08-29T04:11:28.300Z,14.60
2022-08-29T04:13:55.461Z,14.60
2022-08-29T04:16:30.920Z,14.60
2022-08-29T04:18:58.381Z,14.60
2022-08-29T04:21:26.015Z,14.60
2022-08-29T04:23:56.199Z,14.60
2022-08-29T04:26:41.015Z,14.60
2022-08-29T04:29:09.980Z,14.60
2022-08-29T04:31:40.359Z,14.60
2022-08-29T04:34:11.820Z,14.60
2022-08-29T04:36:42.225Z,14.60
2022-08-29T04:39:10.785Z,14.60
2022-08-29T04:41:40.756Z,14.60
2022-08-29T04:44:11.831Z,14.60
2022-08-29T04:46:40.063Z,14.60
2022-08-29T04:49:06.933Z,14.60
2022-08-29T04:51:35.731Z,14.60
2022-08-29T04:54:04.598Z,14.60
2022-08-29T04:56:34.860Z,14.70
2022-08-29T04:59:03.779Z,14.60
2022-08-29T05:01:31.900Z,14.60
2022-08-29T05:04:00.295Z,14.60
2022-08-29T05:06:34.682Z,14.60
2022-08-29T05:09:01.718Z,14.70
2022-08-29T05:11:31.000Z,14.80
2022-08-29T05:14:01.952Z,14.90
2022-08-29T05:16:35.193Z,15.00
2022-08-29T05:19:04.067Z,15.00
2022-08-29T05:21:35.589Z,15.00
2022-08-29T05:24:08.282Z,15.10
2022-08-29T05:26:39.323Z,15.20
2022-08-29T05:29:08.901Z,15.20
2022-08-29T05:31:38.344Z,15.30
2022-08-29T05:34:32.843Z,15.30
2022-08-29T05:36:52.647Z,15.40
2022-08-29T05:39:20.222Z,15.40
2022-08-29T05:41:47.392Z,15.50
2022-08-29T05:44:14.611Z,15.60
2022-08-29T05:46:45.294Z,15.60
2022-08-29T05:49:13.179Z,15.70
2022-08-29T05:51:40.056Z,15.80
2022-08-29T05:54:07.623Z,15.90
2022-08-29T05:56:35.104Z,16.00
2022-08-29T05:59:03.666Z,16.10
2022-08-29T06:01:34.013Z,16.20
2022-08-29T06:04:01.729Z,16.20
2022-08-29T06:06:29.367Z,16.30
2022-08-29T06:08:57.809Z,16.40
2022-08-29T06:11:30.828Z,16.40
2022-08-29T06:14:05.920Z,16.50
2022-08-29T06:16:33.644Z,16.60
2022-08-29T06:19:01.117Z,16.70
2022-08-29T06:21:28.375Z,16.70
2022-08-29T06:23:55.695Z,16.80
2022-08-29T06:26:23.203Z,16.90
2022-08-29T06:28:50.700Z,17.00
2022-08-29T06:31:27.354Z,17.10
2022-08-29T06:33:56.744Z,17.20
2022-08-29T06:36:27.292Z,17.20
2022-08-29T06:39:01.076Z,17.30
2022-08-29T06:41:28.624Z,17.30
2022-08-29T06:43:59.792Z,17.40
2022-08-29T06:46:28.397Z,17.50
2022-08-29T06:48:57.074Z,17.70
2022-08-29T06:51:25.115Z,17.80
2022-08-29T06:53:52.247Z,17.90
2022-08-29T06:56:20.473Z,18.00
2022-08-29T06:58:48.538Z,18.10
2022-08-29T07:01:18.052Z,18.20
2022-08-29T07:03:45.436Z,18.30
2022-08-29T07:06:12.740Z,18.30
2022-08-29T07:08:46.651Z,18.40
2022-08-29T07:11:25.093Z,18.60
2022-08-29T07:13:53.216Z,18.70
2022-08-29T07:16:20.212Z,18.80
2022-08-29T07:18:47.336Z,18.90
2022-08-29T07:21:20.654Z,19.00
2022-08-29T07:23:52.969Z,19.10
2022-08-29T07:26:26.925Z,19.20
2022-08-29T07:28:55.897Z,19.30
2022-08-29T07:31:22.976Z,19.30
2022-08-29T07:34:01.767Z,19.40
2022-08-29T07:36:30.968Z,19.40
2022-08-29T07:38:57.756Z,19.60
2022-08-29T07:41:25.505Z,19.60
2022-08-29T07:43:52.704Z,19.70
2022-08-29T07:46:20.980Z,19.80
2022-08-29T07:48:47.856Z,19.80
2022-08-29T07:51:18.836Z,19.90
2022-08-29T07:53:47.036Z,20.00
2022-08-29T07:56:18.131Z,20.10
2022-08-29T07:58:46.559Z,20.10
2022-08-29T08:01:20.761Z,20.20
2022-08-29T08:03:50.687Z,20.20
2022-08-29T08:06:22.380Z,20.30
2022-08-29T08:08:49.819Z,20.40
2022-08-29T08:11:17.551Z,20.50
2022-08-29T08:13:44.602Z,20.60
2022-08-29T08:16:14.805Z,20.70
2022-08-29T08:18:43.164Z,20.80
2022-08-29T08:21:11.397Z,20.90
2022-08-29T08:23:38.572Z,20.90
2022-08-29T08:26:06.102Z,21.00
2022-08-29T08:28:33.939Z,21.00
2022-08-29T08:31:05.828Z,21.10
2022-08-29T08:33:35.488Z,21.10
2022-08-29T08:36:03.956Z,21.20
2022-08-29T08:38:31.673Z,21.30
2022-08-29T08:41:36.206Z,21.50
2022-08-29T08:44:07.190Z,21.50
2022-08-29T08:46:44.191Z,21.60
2022-08-29T08:49:14.504Z,21.70
2022-08-29T08:51:46.741Z,21.70
2022-08-29T08:54:22.136Z,21.80
2022-08-29T08:56:57.773Z,21.90
2022-08-29T08:59:32.935Z,22.00
2022-08-29T09:02:21.733Z,22.10
2022-08-29T09:05:19.972Z,22.00
2022-08-29T09:08:09.760Z,22.00
2022-08-29T09:10:58.927Z,22.10
2022-08-29T09:14:08.391Z,22.20
2022-08-29T09:16:43.250Z,22.10
2022-08-29T09:19:12.761Z,22.10
2022-08-29T09:21:58.316Z,22.20
2022-08-29T09:24:42.780Z,22.10
2022-08-29T09:27:18.943Z,22.30
2022-08-29T09:29:47.818Z,22.50
2022-08-29T09:32:18.937Z,22.70
2022-08-29T09:37:36.100Z,23.20
2022-08-29T09:40:19.014Z,23.50
2022-08-29T09:42:59.748Z,23.60
2022-08-29T09:45:27.217Z,23.50
2022-08-29T09:48:14.429Z,23.50
2022-08-29T09:50:41.430Z,23.60
2022-08-29T09:53:10.067Z,23.70
2022-08-29T09:55:52.459Z,23.70
2022-08-29T09:58:22.238Z,23.60
2022-08-29T10:01:09.807Z,23.50
2022-08-29T10:04:00.105Z,23.50
2022-08-29T10:06:31.188Z,23.40
2022-08-29T10:08:57.926Z,23.30
2022-08-29T10:11:37.388Z,23.20
2022-08-29T10:14:13.006Z,23.20
2022-08-29T10:17:21.790Z,23.10
2022-08-29T10:19:49.068Z,23.00
2022-08-29T10:22:38.942Z,23.10
2022-08-29T10:25:09.484Z,23.20
2022-08-29T10:27:51.685Z,23.00
2022-08-29T10:30:23.736Z,23.00
2022-08-29T10:33:09.497Z,23.00
2022-08-29T10:35:58.214Z,23.00
2022-08-29T10:38:41.129Z,23.00
2022-08-29T10:41:26.780Z,23.00
2022-08-29T10:44:29.716Z,23.10
2022-08-29T10:47:00.108Z,23.20
2022-08-29T10:49:48.686Z,23.30
2022-08-29T10:52:39.173Z,23.40
2022-08-29T10:55:35.713Z,23.50
2022-08-29T10:58:40.577Z,23.70
2022-08-29T11:01:22.323Z,23.80
2022-08-29T11:04:20.474Z,24.00
2022-08-29T11:07:16.302Z,24.10
2022-08-29T11:09:54.872Z,24.10
2022-08-29T11:12:52.568Z,24.30
2022-08-29T11:15:19.390Z,24.50
2022-08-29T11:17:53.758Z,24.80
2022-08-29T11:20:29.915Z,24.90
2022-08-29T11:23:08.277Z,24.80
2022-08-29T11:25:36.332Z,24.80
2022-08-29T11:28:17.111Z,24.90
2022-08-29T11:30:53.373Z,25.00
2022-08-29T11:33:28.897Z,25.10
2022-08-29T11:36:23.421Z,25.30
2022-08-29T11:38:59.392Z,25.20
2022-08-29T11:41:31.642Z,25.10
2022-08-29T11:44:23.735Z,25.20
2022-08-29T11:46:56.055Z,25.30
2022-08-29T11:49:42.489Z,25.50
2022-08-29T11:52:10.779Z,25.60
2022-08-29T11:54:39.070Z,25.70
2022-08-29T11:57:05.827Z,25.70
2022-08-29T11:59:54.682Z,25.80
2022-08-29T12:02:27.739Z,25.80
2022-08-29T12:05:02.080Z,25.70
2022-08-29T12:07:54.446Z,25.50
2022-08-29T12:10:24.221Z,25.40
2022-08-29T12:12:56.529Z,25.20
2022-08-29T12:15:51.791Z,25.00
2022-08-29T12:18:21.420Z,24.90
2022-08-29T12:20:55.544Z,24.90
2022-08-29T12:23:36.476Z,24.80
2022-08-29T12:26:21.981Z,24.80
2022-08-29T12:28:59.162Z,24.80
2022-08-29T12:32:17.839Z,24.90
2022-08-29T12:35:04.036Z,25.00
2022-08-29T12:37:39.960Z,25.20
2022-08-29T12:40:16.926Z,25.40
2022-08-29T12:43:20.897Z,25.50
2022-08-29T12:45:49.568Z,25.60
2022-08-29T12:48:22.710Z,25.80
2022-08-29T12:50:50.368Z,25.90
2022-08-29T12:53:19.341Z,26.10
2022-08-29T12:56:15.344Z,26.20
2022-08-29T12:58:45.686Z,25.90
2022-08-29T13:01:40.003Z,25.70
2022-08-29T13:04:17.897Z,25.60
2022-08-29T13:07:01.733Z,25.50
2022-08-29T13:09:39.164Z,25.40
2022-08-29T13:12:17.874Z,25.20
2022-08-29T13:14:50.504Z,25.20
2022-08-29T13:17:20.857Z,25.10
2022-08-29T13:20:25.578Z,25.20
2022-08-29T13:23:24.323Z,25.20
2022-08-29T13:25:58.314Z,25.30
2022-08-29T13:29:14.469Z,25.60
2022-08-29T13:31:41.486Z,25.80
2022-08-29T13:34:19.118Z,25.80
2022-08-29T13:36:59.042Z,25.90
2022-08-29T13:39:30.356Z,25.90
2022-08-29T13:42:03.194Z,25.70
2022-08-29T13:44:45.124Z,25.60
2022-08-29T13:47:39.264Z,25.40
2022-08-29T13:50:09.929Z,25.50
2022-08-29T13:52:36.889Z,25.50
2022-08-29T13:55:06.744Z,25.50
2022-08-29T13:57:34.740Z,25.60
2022-08-29T14:00:04.773Z,25.60
2022-08-29T14:02:33.843Z,25.60
2022-08-29T14:05:00.964Z,25.50
2022-08-29T14:07:31.258Z,25.50
2022-08-29T14:09:58.535Z,25.50
2022-08-29T14:12:33.346Z,25.50
2022-08-29T14:15:09.483Z,25.50
2022-08-29T14:17:40.284Z,25.60
2022-08-29T14:20:09.753Z,25.60
2022-08-29T14:22:37.577Z,25.60
2022-08-29T14:25:06.776Z,25.70
2022-08-29T14:27:34.084Z,25.60
2022-08-29T14:30:01.035Z,25.60
2022-08-29T14:32:28.040Z,25.60
2022-08-29T14:34:54.866Z,25.50
2022-08-29T14:37:21.770Z,25.50
2022-08-29T14:39:49.974Z,25.50
2022-08-29T14:42:17.606Z,25.50
2022-08-29T14:44:44.421Z,25.50
2022-08-29T14:47:11.663Z,25.60
2022-08-29T14:49:38.485Z,25.50
2022-08-29T14:52:05.852Z,25.50
2022-08-29T14:54:32.907Z,25.50
2022-08-29T14:57:00.111Z,25.60
2022-08-29T14:59:26.913Z,25.60
2022-08-29T15:01:54.968Z,25.60
2022-08-29T15:04:35.637Z,25.50
2022-08-29T15:07:07.889Z,25.60
2022-08-29T15:09:34.833Z,25.60
2022-08-29T15:12:01.652Z,25.50
2022-08-29T15:14:28.587Z,25.50
2022-08-29T15:16:55.377Z,25.40
2022-08-29T15:22:11.211Z,25.40
2022-08-29T15:24:38.712Z,25.30
2022-08-29T15:27:06.550Z,25.40
2022-08-29T15:29:34.425Z,25.40
2022-08-29T15:32:01.238Z,25.40
2022-08-29T15:34:29.421Z,25.40
2022-08-29T15:36:57.465Z,25.40
2022-08-29T15:39:27.944Z,25.40
2022-08-29T15:41:55.988Z,25.40
2022-08-29T15:44:23.452Z,25.40
2022-08-29T15:46:52.193Z,25.40
2022-08-29T15:49:21.427Z,25.40
2022-08-29T15:51:49.250Z,25.30
2022-08-29T15:54:16.615Z,25.20
2022-08-29T15:56:44.326Z,25.10
2022-08-29T15:59:13.400Z,25.10
2022-08-29T16:01:43.222Z,25.10
2022-08-29T16:04:12.286Z,25.10
2022-08-29T16:06:39.192Z,25.10
2022-08-29T16:09:14.958Z,25.10
2022-08-29T16:11:43.287Z,25.10
2022-08-29T16:14:41.404Z,25.10
2022-08-29T16:16:57.783Z,25.00
2022-08-29T16:19:24.651Z,25.00
2022-08-29T16:21:51.440Z,25.00
2022-08-29T16:24:19.394Z,25.10
2022-08-29T16:26:46.276Z,25.10
2022-08-29T16:29:13.231Z,25.10
2022-08-29T16:31:40.057Z,25.00
2022-08-29T16:34:06.945Z,25.10
2022-08-29T16:36:34.062Z,25.00
2022-08-29T16:39:00.823Z,25.00
2022-08-29T16:41:28.684Z,25.00
2022-08-29T16:43:55.547Z,24.90
2022-08-29T16:46:25.568Z,24.80
2022-08-29T16:48:53.119Z,24.80
2022-08-29T16:51:26.502Z,24.80
2022-08-29T16:53:53.693Z,24.80
2022-08-29T16:56:20.756Z,24.70
2022-08-29T16:59:00.498Z,24.70
2022-08-29T17:01:28.734Z,24.70
2022-08-29T17:03:56.075Z,24.60
2022-08-29T17:06:23.522Z,24.60
2022-08-29T17:08:50.235Z,24.50
2022-08-29T17:11:19.270Z,24.50
2022-08-29T17:13:46.155Z,24.50
2022-08-29T17:16:13.856Z,24.40
2022-08-29T17:18:41.634Z,24.50
2022-08-29T17:21:09.093Z,24.50
2022-08-29T17:23:36.546Z,24.60
2022-08-29T17:26:06.576Z,24.70
2022-08-29T17:28:34.497Z,24.70
2022-08-29T17:31:01.521Z,24.80
2022-08-29T17:33:28.744Z,24.80
2022-08-29T17:35:56.011Z,24.90
2022-08-29T17:38:23.687Z,24.80
2022-08-29T17:40:57.143Z,24.60
2022-08-29T17:43:25.945Z,24.40
2022-08-29T17:45:53.344Z,24.20
2022-08-29T17:48:20.267Z,24.00
2022-08-29T17:50:49.023Z,23.90
2022-08-29T17:53:17.677Z,23.70
2022-08-29T17:55:45.886Z,23.50
2022-08-29T17:58:13.801Z,23.30
2022-08-29T18:00:41.042Z,23.20
2022-08-29T18:03:08.079Z,23.00
2022-08-29T18:05:34.829Z,22.80
2022-08-29T18:08:01.905Z,22.60
2022-08-29T18:10:29.800Z,22.50
2022-08-29T18:12:56.681Z,22.40
2022-08-29T18:15:23.967Z,22.20
2022-08-29T18:17:51.404Z,22.10
2022-08-29T18:20:21.473Z,22.00
2022-08-29T18:22:50.080Z,21.80
2022-08-29T18:25:22.524Z,21.70
2022-08-29T18:27:50.524Z,21.60
2022-08-29T18:30:17.613Z,21.40
2022-08-29T18:32:45.374Z,21.30
2022-08-29T18:35:13.776Z,21.30
2022-08-29T18:37:40.622Z,21.20
2022-08-29T18:40:08.897Z,21.10
2022-08-29T18:42:40.906Z,21.00
2022-08-29T18:45:09.522Z,20.90
2022-08-29T18:47:36.874Z,20.80
2022-08-29T18:50:24.914Z,20.60
2022-08-29T18:52:53.244Z,20.60
2022-08-29T18:55:22.751Z,20.50
2022-08-29T18:57:50.263Z,20.50
2022-08-29T19:00:17.607Z,20.40
2022-08-29T19:02:45.676Z,20.40
2022-08-29T19:05:12.863Z,20.30
2022-08-29T19:07:39.992Z,20.20
2022-08-29T19:10:08.026Z,20.10
2022-08-29T19:12:35.450Z,20.10
2022-08-29T19:15:04.953Z,20.00
2022-08-29T19:17:33.254Z,19.90
2022-08-29T19:20:19.778Z,19.80
2022-08-29T19:22:47.241Z,19.80
2022-08-29T19:25:14.041Z,19.70
2022-08-29T19:27:44.086Z,19.60
2022-08-29T19:30:14.007Z,19.60
2022-08-29T19:32:41.248Z,19.50
2022-08-29T19:35:11.172Z,19.50
2022-08-29T19:37:39.149Z,19.50
2022-08-29T19:40:08.666Z,19.40
2022-08-29T19:42:36.497Z,19.40
2022-08-29T19:45:05.639Z,19.30
2022-08-29T19:47:33.502Z,19.30
2022-08-29T19:50:00.718Z,19.20
2022-08-29T19:52:28.219Z,19.20
2022-08-29T19:54:58.459Z,19.10
2022-08-29T19:57:27.402Z,19.10
2022-08-29T19:59:54.921Z,19.00
2022-08-29T20:02:22.200Z,19.00
2022-08-29T20:04:49.195Z,19.00
2022-08-29T20:07:15.970Z,18.90
2022-08-29T20:09:43.050Z,18.90
2022-08-29T20:12:09.843Z,18.90
2022-08-29T20:14:37.385Z,18.90
2022-08-29T20:17:09.370Z,18.70
2022-08-29T20:19:39.423Z,18.70
2022-08-29T20:22:07.316Z,18.70
2022-08-29T20:24:34.546Z,18.60
2022-08-29T20:27:02.257Z,18.60
2022-08-29T20:29:30.383Z,18.60
2022-08-29T20:31:59.010Z,18.50
2022-08-29T20:34:29.496Z,18.50
2022-08-29T20:37:09.167Z,18.40
2022-08-29T20:39:46.461Z,18.40
2022-08-29T20:42:17.285Z,18.40
2022-08-29T20:44:45.476Z,18.40
2022-08-29T20:47:19.377Z,18.30
2022-08-29T20:49:46.877Z,18.30
2022-08-29T20:52:18.678Z,18.30
2022-08-29T20:54:47.542Z,18.20
2022-08-29T20:57:15.213Z,18.20
2022-08-29T20:59:43.121Z,18.20
2022-08-29T21:02:10.948Z,18.20
2022-08-29T21:04:56.896Z,18.10
2022-08-29T21:07:23.724Z,18.10
2022-08-29T21:09:51.025Z,18.10
2022-08-29T21:12:18.793Z,18.00
2022-08-29T21:14:46.715Z,17.90
2022-08-29T21:17:14.842Z,17.90
2022-08-29T21:19:43.976Z,17.90
2022-08-29T21:22:12.985Z,17.90
2022-08-29T21:24:40.530Z,17.80
2022-08-29T21:27:07.446Z,17.80
2022-08-29T21:29:34.939Z,17.80
2022-08-29T21:32:01.929Z,17.80
2022-08-29T21:34:28.952Z,17.80
2022-08-29T21:36:55.939Z,17.80
2022-08-29T21:39:28.339Z,17.90
2022-08-29T21:41:57.161Z,17.90
2022-08-29T21:44:24.326Z,17.90
2022-08-29T21:46:51.375Z,17.80
2022-08-29T21:49:21.506Z,17.90
2022-08-29T21:51:49.685Z,17.70
2022-08-29T21:54:17.522Z,17.70
2022-08-29T21:56:45.271Z,17.60
2022-08-29T21:59:13.976Z,17.60
2022-08-29T22:01:41.900Z,17.50
2022-08-29T22:04:19.168Z,17.50
2022-08-29T22:06:56.098Z,17.50
2022-08-29T22:09:23.184Z,17.50
2022-08-29T22:11:50.371Z,17.40
2022-08-29T22:14:17.231Z,17.40
2022-08-29T22:16:44.120Z,17.30
2022-08-29T22:19:16.240Z,17.30
2022-08-29T22:21:49.667Z,17.30
2022-08-29T22:24:17.508Z,17.30
2022-08-29T22:26:45.104Z,17.20
2022-08-29T22:29:14.218Z,17.20
2022-08-29T22:31:42.617Z,17.20
2022-08-29T22:34:11.469Z,17.20
2022-08-29T22:36:38.625Z,17.20
2022-08-29T22:39:05.735Z,17.10
2022-08-29T22:41:33.627Z,17.10
2022-08-29T22:44:47.137Z,17.10
2022-08-29T22:46:49.025Z,17.10
2022-08-29T22:49:16.039Z,17.10
2022-08-29T22:51:42.984Z,17.10
2022-08-29T22:54:28.995Z,17.10
2022-08-29T22:56:55.938Z,17.00
2022-08-29T22:59:23.863Z,16.90
2022-08-29T23:01:50.740Z,16.90
2022-08-29T23:04:17.580Z,16.90
2022-08-29T23:06:46.073Z,16.80
2022-08-29T23:09:13.059Z,16.80
2022-08-29T23:11:39.912Z,16.80
2022-08-29T23:14:07.597Z,16.80
2022-08-29T23:16:35.253Z,16.80
2022-08-29T23:19:03.606Z,16.80
2022-08-29T23:21:33.763Z,16.80
2022-08-29T23:24:01.471Z,16.80
2022-08-29T23:26:28.854Z,16.70
2022-08-29T23:28:55.893Z,16.70
2022-08-29T23:31:24.743Z,16.70
2022-08-29T23:33:53.300Z,16.50
2022-08-29T23:36:20.511Z,16.50
2022-08-29T23:38:47.856Z,16.50
2022-08-29T23:41:17.353Z,16.60
2022-08-29T23:43:44.696Z,16.50
2022-08-29T23:46:12.131Z,16.50
2022-08-29T23:48:39.313Z,16.50
2022-08-29T23:51:08.377Z,16.40
2022-08-29T23:53:36.160Z,16.40
2022-08-29T23:56:11.627Z,16.30
2022-08-29T23:58:39.360Z,16.30
